createdAt,value
2023-02-28T22:59:32.165Z,1029.91
2023-02-28T23:00:32.155Z,1029.91
2023-02-28T23:01:32.207Z,1029.83
2023-02-28T23:02:32.110Z,1029.80
2023-02-28T23:03:32.094Z,1029.80
2023-02-28T23:04:32.130Z,1029.81
2023-02-28T23:05:32.073Z,1029.83
2023-02-28T23:06:32.473Z,1029.80
2023-02-28T23:07:32.044Z,1029.85
2023-02-28T23:08:32.034Z,1029.87
2023-02-28T23:09:32.011Z,1029.85
2023-02-28T23:10:32.040Z,1029.92
2023-02-28T23:11:32.032Z,1029.89
2023-02-28T23:12:32.023Z,1029.86
2023-02-28T23:13:32.022Z,1029.88
2023-02-28T23:14:31.980Z,1029.89
2023-02-28T23:15:31.960Z,1029.94
2023-02-28T23:16:32.391Z,1029.92
2023-02-28T23:17:31.919Z,1029.94
2023-02-28T23:18:31.933Z,1029.94
2023-02-28T23:19:31.915Z,1029.97
2023-02-28T23:20:31.882Z,1029.98
2023-02-28T23:21:31.870Z,1030.03
2023-02-28T23:22:31.852Z,1030.00
2023-02-28T23:23:31.831Z,1029.99
2023-02-28T23:24:31.868Z,1029.99
2023-02-28T23:25:31.820Z,1030.00
2023-02-28T23:26:32.057Z,1030.06
2023-02-28T23:27:31.836Z,1030.04
2023-02-28T23:28:31.770Z,1030.05
2023-02-28T23:29:31.785Z,1030.06
2023-02-28T23:30:31.762Z,1030.06
2023-02-28T23:31:31.769Z,1030.08
2023-02-28T23:32:31.733Z,1030.07
2023-02-28T23:33:31.730Z,1030.09
2023-02-28T23:34:31.690Z,1030.11
2023-02-28T23:35:31.777Z,1030.07
2023-02-28T23:36:32.028Z,1030.06
2023-02-28T23:37:31.661Z,1030.08
2023-02-28T23:38:31.658Z,1030.04
2023-02-28T23:39:31.659Z,1030.06
2023-02-28T23:40:31.647Z,1030.08
2023-02-28T23:41:31.624Z,1030.05
2023-02-28T23:42:31.600Z,1030.04
2023-02-28T23:43:31.569Z,1030.08
2023-02-28T23:44:31.574Z,1030.03
2023-02-28T23:45:31.616Z,1030.05
2023-02-28T23:46:31.899Z,1030.04
2023-02-28T23:47:31.557Z,1030.04
2023-02-28T23:48:31.518Z,1030.06
2023-02-28T23:49:31.521Z,1030.10
2023-02-28T23:50:31.499Z,1030.14
2023-02-28T23:51:31.501Z,1030.14
2023-02-28T23:52:31.485Z,1030.17
2023-02-28T23:53:31.469Z,1030.17
2023-02-28T23:54:31.451Z,1030.17
2023-02-28T23:55:31.421Z,1030.21
2023-02-28T23:56:31.710Z,1030.22
2023-02-28T23:57:31.412Z,1030.20
2023-02-28T23:58:31.413Z,1030.23
2023-02-28T23:59:31.375Z,1030.21
